createdAt,value
2017-12-12T00:00:53.170Z,90.03
2017-12-12T00:01:55.627Z,90.01
2017-12-12T00:02:58.081Z,89.88
2017-12-12T00:04:00.586Z,89.75
2017-12-12T00:05:03.057Z,90.27
2017-12-12T00:06:05.540Z,90.54
2017-12-12T00:07:07.998Z,90.17
2017-12-12T00:08:10.474Z,90.39
2017-12-12T00:09:12.955Z,90.52
2017-12-12T00:10:15.410Z,90.19
2017-12-12T00:11:17.874Z,90.22
2017-12-12T00:12:20.338Z,89.52
2017-12-12T00:13:22.813Z,89.86
2017-12-12T00:14:25.300Z,89.81
2017-12-12T00:15:27.758Z,89.51
2017-12-12T00:16:30.223Z,89.68
2017-12-12T00:17:32.687Z,89.73
2017-12-12T00:18:35.164Z,89.50
2017-12-12T00:19:37.652Z,89.86
2017-12-12T00:20:40.117Z,90.17
2017-12-12T00:21:42.571Z,90.11
2017-12-12T00:22:45.031Z,89.88
2017-12-12T00:23:47.510Z,89.03
2017-12-12T00:24:50.009Z,88.69
2017-12-12T00:25:52.475Z,89.08
2017-12-12T00:26:54.938Z,88.70
2017-12-12T00:27:57.398Z,88.69
2017-12-12T00:28:59.856Z,88.68
2017-12-12T00:30:02.331Z,88.99
2017-12-12T00:31:04.811Z,88.75
2017-12-12T00:32:07.293Z,88.58
2017-12-12T00:33:09.749Z,88.83
2017-12-12T00:34:12.215Z,88.99
2017-12-12T00:35:14.701Z,89.34
2017-12-12T00:36:17.180Z,89.06
2017-12-12T00:37:19.659Z,88.63
2017-12-12T00:38:22.209Z,89.06
2017-12-12T00:39:24.666Z,88.40
2017-12-12T00:40:27.165Z,88.58
2017-12-12T00:41:29.618Z,89.05
2017-12-12T00:42:32.103Z,89.56
2017-12-12T00:43:34.551Z,89.54
2017-12-12T00:44:37.010Z,89.42
2017-12-12T00:45:39.487Z,89.66
2017-12-12T00:46:41.942Z,89.52
2017-12-12T00:47:44.412Z,89.54
2017-12-12T00:48:46.870Z,90.19
2017-12-12T00:49:49.722Z,90.02
2017-12-12T00:50:52.213Z,90.52
2017-12-12T00:51:54.698Z,90.44
2017-12-12T00:52:57.154Z,90.20
2017-12-12T00:53:59.610Z,90.40
2017-12-12T00:55:02.075Z,90.27
2017-12-12T00:56:04.551Z,90.29
2017-12-12T00:57:07.015Z,90.35
2017-12-12T00:58:09.492Z,90.34
2017-12-12T00:59:11.996Z,90.35
2017-12-12T01:00:14.465Z,90.87
2017-12-12T01:01:16.947Z,90.54
2017-12-12T01:02:19.412Z,90.40
2017-12-12T01:03:21.870Z,90.44
2017-12-12T01:04:24.328Z,90.92
2017-12-12T01:05:26.782Z,90.88
2017-12-12T01:06:29.258Z,90.82
2017-12-12T01:07:31.714Z,90.61
2017-12-12T01:08:34.174Z,90.82
2017-12-12T01:09:36.650Z,91.48
2017-12-12T01:10:39.120Z,91.42
2017-12-12T01:11:41.612Z,91.34
2017-12-12T01:12:44.074Z,90.85
2017-12-12T01:13:46.534Z,91.28
2017-12-12T01:14:49.006Z,91.50
2017-12-12T01:15:51.468Z,91.71
2017-12-12T01:16:53.946Z,91.49
2017-12-12T01:17:56.495Z,91.05
2017-12-12T01:18:58.963Z,90.94
2017-12-12T01:20:01.433Z,91.07
2017-12-12T01:21:03.994Z,90.61
2017-12-12T01:22:06.484Z,90.47
2017-12-12T01:23:08.947Z,90.35
2017-12-12T01:24:11.416Z,90.42
2017-12-12T01:25:13.892Z,90.47
2017-12-12T01:26:16.356Z,90.42
2017-12-12T01:27:18.836Z,90.61
2017-12-12T01:28:21.312Z,90.25
2017-12-12T01:29:23.766Z,90.17
2017-12-12T01:30:26.230Z,90.09
2017-12-12T01:31:28.700Z,90.15
2017-12-12T01:32:31.192Z,90.23
2017-12-12T01:33:33.661Z,90.29
2017-12-12T01:34:36.131Z,90.25
2017-12-12T01:35:38.605Z,90.35
2017-12-12T01:36:41.085Z,90.78
2017-12-12T01:37:43.578Z,90.47
2017-12-12T01:38:46.068Z,90.38
2017-12-12T01:39:48.535Z,90.36
2017-12-12T01:40:51.008Z,90.67
2017-12-12T01:41:53.470Z,90.73
2017-12-12T01:42:55.947Z,90.72
2017-12-12T01:43:58.424Z,90.74
2017-12-12T01:45:00.878Z,90.91
2017-12-12T01:46:03.348Z,90.92
2017-12-12T01:47:05.802Z,90.91
2017-12-12T01:48:08.299Z,91.36
2017-12-12T01:49:10.756Z,91.30
2017-12-12T01:50:13.215Z,91.19
2017-12-12T01:51:15.696Z,91.49
2017-12-12T01:52:18.158Z,91.52
2017-12-12T01:53:20.669Z,90.97
2017-12-12T01:54:23.141Z,90.81
2017-12-12T01:55:25.622Z,90.75
2017-12-12T01:56:28.097Z,90.66
2017-12-12T01:57:30.618Z,90.48
2017-12-12T01:58:33.104Z,90.47
2017-12-12T01:59:35.577Z,90.52
2017-12-12T02:00:38.061Z,90.42
2017-12-12T02:01:40.548Z,90.63
2017-12-12T02:02:43.020Z,90.52
2017-12-12T02:03:45.507Z,90.61
2017-12-12T02:04:47.963Z,90.62
2017-12-12T02:05:50.419Z,90.73
2017-12-12T02:06:52.880Z,90.72
2017-12-12T02:07:55.366Z,90.61
2017-12-12T02:08:57.857Z,91.13
2017-12-12T02:10:00.337Z,91.16
2017-12-12T02:11:02.791Z,90.96
2017-12-12T02:12:05.277Z,90.74
2017-12-12T02:13:07.744Z,90.92
2017-12-12T02:14:10.238Z,91.26
2017-12-12T02:15:12.843Z,91.80
2017-12-12T02:16:15.298Z,91.49
2017-12-12T02:17:17.759Z,91.27
2017-12-12T02:18:20.222Z,91.45
2017-12-12T02:19:22.708Z,91.50
2017-12-12T02:20:25.181Z,91.63
2017-12-12T02:21:27.656Z,91.90
2017-12-12T02:22:30.110Z,91.84
2017-12-12T02:23:32.562Z,91.90
2017-12-12T02:24:35.043Z,92.22
2017-12-12T02:25:37.512Z,91.99
2017-12-12T02:26:39.985Z,91.75
2017-12-12T02:27:42.460Z,91.69
2017-12-12T02:28:44.934Z,91.70
2017-12-12T02:29:47.423Z,92.05
2017-12-12T02:30:49.887Z,91.53
2017-12-12T02:31:52.339Z,91.62
2017-12-12T02:32:54.795Z,91.32
2017-12-12T02:33:57.284Z,91.39
2017-12-12T02:34:59.766Z,91.20
2017-12-12T02:36:02.214Z,91.29
2017-12-12T02:37:04.674Z,91.41
2017-12-12T02:38:07.128Z,91.54
2017-12-12T02:39:09.600Z,91.79
2017-12-12T02:40:12.095Z,91.81
2017-12-12T02:41:14.550Z,91.97
2017-12-12T02:42:17.008Z,92.42
2017-12-12T02:43:19.483Z,92.42
2017-12-12T02:44:21.957Z,92.40
2017-12-12T02:45:24.449Z,91.75
2017-12-12T02:46:26.922Z,91.86
2017-12-12T02:47:29.388Z,91.97
2017-12-12T02:48:31.866Z,92.37
2017-12-12T02:49:34.336Z,91.98
2017-12-12T02:50:36.819Z,91.75
2017-12-12T02:51:39.288Z,91.39
2017-12-12T02:52:41.746Z,91.49
2017-12-12T02:53:44.203Z,91.43
2017-12-12T02:54:46.678Z,91.27
2017-12-12T02:55:49.169Z,91.53
2017-12-12T02:56:51.626Z,91.50
2017-12-12T02:57:54.082Z,91.11
2017-12-12T02:58:56.541Z,91.50
2017-12-12T02:59:58.999Z,92.17
2017-12-12T03:01:01.483Z,92.24
2017-12-12T03:02:03.942Z,92.19
2017-12-12T03:03:06.401Z,91.80
2017-12-12T03:04:08.866Z,91.32
2017-12-12T03:05:11.336Z,91.08
2017-12-12T03:06:13.815Z,91.17
2017-12-12T03:07:16.266Z,91.32
2017-12-12T03:08:18.736Z,90.88
2017-12-12T03:09:21.195Z,90.94
2017-12-12T03:10:23.672Z,91.27
2017-12-12T03:11:26.160Z,91.13
2017-12-12T03:12:28.625Z,91.04
2017-12-12T03:13:31.079Z,90.95
2017-12-12T03:14:33.539Z,91.17
2017-12-12T03:15:36.014Z,91.13
2017-12-12T03:16:38.505Z,90.56
2017-12-12T03:17:40.963Z,90.47
2017-12-12T03:18:43.427Z,90.86
2017-12-12T03:19:45.933Z,90.64
2017-12-12T03:20:48.396Z,90.27
2017-12-12T03:21:50.877Z,90.32
2017-12-12T03:22:53.342Z,90.92
2017-12-12T03:23:55.802Z,90.76
2017-12-12T03:24:58.255Z,90.08
2017-12-12T03:26:00.724Z,90.74
2017-12-12T03:27:03.198Z,91.08
2017-12-12T03:28:05.669Z,91.09
2017-12-12T03:29:08.135Z,90.24
2017-12-12T03:30:10.599Z,90.36
2017-12-12T03:31:13.075Z,90.46
2017-12-12T03:32:15.551Z,90.43
2017-12-12T03:33:18.006Z,90.24
2017-12-12T03:34:20.476Z,90.89
2017-12-12T03:35:22.934Z,91.46
2017-12-12T03:36:25.394Z,91.19
2017-12-12T03:37:27.876Z,90.66
2017-12-12T03:38:30.330Z,90.65
2017-12-12T03:39:32.804Z,91.01
2017-12-12T03:40:35.254Z,91.37
2017-12-12T03:41:37.711Z,90.91
2017-12-12T03:42:40.236Z,90.45
2017-12-12T03:43:42.709Z,90.56
2017-12-12T03:44:45.187Z,90.93
2017-12-12T03:45:47.650Z,91.25
2017-12-12T03:46:50.111Z,91.44
2017-12-12T03:47:52.604Z,90.81
2017-12-12T03:48:55.060Z,90.96
2017-12-12T03:49:57.537Z,91.05
2017-12-12T03:51:00.004Z,90.69
2017-12-12T03:52:02.460Z,90.94
2017-12-12T03:53:04.930Z,90.62
2017-12-12T03:54:07.432Z,90.69
2017-12-12T03:55:09.894Z,90.22
2017-12-12T03:56:12.365Z,90.51
2017-12-12T03:57:14.818Z,90.23
2017-12-12T03:58:17.290Z,90.14
2017-12-12T03:59:19.756Z,89.87
2017-12-12T04:00:22.224Z,90.18
2017-12-12T04:01:24.717Z,90.29
2017-12-12T04:02:27.177Z,90.19
2017-12-12T04:03:29.646Z,89.97
2017-12-12T04:04:32.113Z,90.11
2017-12-12T04:05:34.569Z,90.86
2017-12-12T04:06:37.040Z,90.59
2017-12-12T04:07:39.504Z,90.68
2017-12-12T04:08:41.996Z,90.89
2017-12-12T04:09:44.468Z,90.79
2017-12-12T04:10:46.937Z,90.84
2017-12-12T04:11:49.390Z,90.92
2017-12-12T04:12:51.860Z,90.82
2017-12-12T04:13:54.354Z,91.32
2017-12-12T04:14:56.822Z,91.14
2017-12-12T04:15:59.302Z,91.11
2017-12-12T04:17:01.755Z,90.99
2017-12-12T04:18:04.220Z,90.95
2017-12-12T04:19:06.712Z,91.18
2017-12-12T04:20:09.185Z,91.39
2017-12-12T04:21:11.638Z,91.70
2017-12-12T04:22:14.098Z,91.70
2017-12-12T04:23:16.568Z,92.12
2017-12-12T04:24:19.057Z,92.03
2017-12-12T04:25:21.539Z,92.19
2017-12-12T04:26:24.003Z,92.41
2017-12-12T04:27:26.463Z,92.33
2017-12-12T04:28:28.927Z,92.16
2017-12-12T04:29:31.408Z,92.17
2017-12-12T04:30:33.925Z,91.28
2017-12-12T04:31:36.378Z,91.55
2017-12-12T04:32:38.852Z,91.43
2017-12-12T04:33:41.329Z,91.15
2017-12-12T04:34:43.809Z,91.09
2017-12-12T04:35:46.263Z,91.00
2017-12-12T04:36:48.714Z,91.09
2017-12-12T04:37:51.185Z,91.29
2017-12-12T04:38:53.648Z,91.20
2017-12-12T04:39:56.144Z,91.53
2017-12-12T04:40:58.602Z,92.06
2017-12-12T04:42:01.071Z,91.66
2017-12-12T04:43:03.536Z,91.49
2017-12-12T04:44:06.000Z,91.93
2017-12-12T04:45:08.488Z,92.01
2017-12-12T04:46:10.985Z,91.85
2017-12-12T04:47:13.460Z,91.89
2017-12-12T04:48:15.922Z,91.59
2017-12-12T04:49:18.383Z,91.28
2017-12-12T04:50:20.892Z,91.06
2017-12-12T04:51:23.351Z,90.68
2017-12-12T04:52:25.806Z,90.86
2017-12-12T04:53:28.262Z,90.65
2017-12-12T04:54:30.719Z,90.43
2017-12-12T04:55:33.194Z,90.82
2017-12-12T04:56:35.654Z,90.87
2017-12-12T04:57:38.133Z,90.65
2017-12-12T04:58:40.598Z,90.69
2017-12-12T04:59:43.050Z,90.18
2017-12-12T05:00:45.805Z,90.12
2017-12-12T05:01:48.258Z,90.40
2017-12-12T05:02:50.731Z,90.32
2017-12-12T05:03:53.190Z,90.41
2017-12-12T05:04:55.642Z,90.06
2017-12-12T05:05:58.145Z,90.21
2017-12-12T05:07:00.628Z,90.27
2017-12-12T05:08:03.082Z,89.96
2017-12-12T05:09:05.530Z,89.64
2017-12-12T05:10:08.010Z,89.25
2017-12-12T05:11:10.514Z,89.51
2017-12-12T05:12:13.006Z,89.36
2017-12-12T05:13:15.462Z,88.86
2017-12-12T05:14:17.932Z,88.74
2017-12-12T05:15:20.409Z,89.06
2017-12-12T05:16:22.892Z,88.72
2017-12-12T05:17:25.396Z,88.52
2017-12-12T05:18:27.851Z,88.38
2017-12-12T05:19:30.332Z,88.39
2017-12-12T05:20:32.806Z,88.27
2017-12-12T05:21:35.282Z,88.55
2017-12-12T05:22:37.755Z,88.26
2017-12-12T05:23:40.227Z,88.14
2017-12-12T05:24:42.695Z,88.53
2017-12-12T05:25:45.175Z,87.72
2017-12-12T05:26:47.672Z,87.84
2017-12-12T05:27:50.887Z,88.39
2017-12-12T05:28:53.338Z,87.63
2017-12-12T05:29:55.801Z,87.96
2017-12-12T05:30:58.277Z,88.03
2017-12-12T05:32:00.754Z,87.81
2017-12-12T05:33:03.225Z,87.69
2017-12-12T05:34:05.707Z,88.01
2017-12-12T05:35:08.183Z,87.95
2017-12-12T05:36:10.709Z,87.60
2017-12-12T05:37:13.154Z,87.61
2017-12-12T05:38:15.611Z,87.17
2017-12-12T05:39:18.090Z,87.40
2017-12-12T05:40:20.563Z,87.52
2017-12-12T05:41:23.033Z,87.47
2017-12-12T05:42:25.586Z,87.28
2017-12-12T05:43:28.050Z,87.67
2017-12-12T05:44:30.555Z,87.36
2017-12-12T05:45:33.024Z,86.91
2017-12-12T05:46:35.478Z,87.16
2017-12-12T05:47:37.979Z,86.98
2017-12-12T05:48:40.452Z,87.14
2017-12-12T05:49:42.915Z,87.27
2017-12-12T05:50:45.374Z,87.07
2017-12-12T05:51:47.830Z,87.27
2017-12-12T05:52:50.302Z,87.28
2017-12-12T05:53:52.746Z,87.08
2017-12-12T05:54:55.225Z,87.29
2017-12-12T05:55:57.700Z,87.49
2017-12-12T05:57:00.165Z,87.27
2017-12-12T05:58:02.760Z,87.32
2017-12-12T05:59:05.235Z,87.27
2017-12-12T06:00:07.708Z,87.24
2017-12-12T06:01:10.164Z,87.41
2017-12-12T06:02:12.618Z,87.36
2017-12-12T06:03:15.095Z,87.41
2017-12-12T06:04:17.558Z,87.64
2017-12-12T06:05:20.028Z,87.64
2017-12-12T06:06:22.502Z,87.64
2017-12-12T06:07:24.982Z,87.69
2017-12-12T06:08:27.461Z,87.47
2017-12-12T06:09:29.933Z,87.63
2017-12-12T06:10:32.390Z,87.55
2017-12-12T06:11:34.853Z,87.67
2017-12-12T06:12:37.329Z,87.66
2017-12-12T06:13:39.806Z,87.75
2017-12-12T06:14:42.276Z,87.72
2017-12-12T06:15:44.753Z,88.22
2017-12-12T06:16:47.603Z,88.24
2017-12-12T06:17:50.054Z,88.04
2017-12-12T06:18:52.553Z,87.92
2017-12-12T06:19:55.025Z,88.08
2017-12-12T06:20:57.501Z,88.35
2017-12-12T06:21:59.958Z,88.17
2017-12-12T06:23:02.424Z,87.96
2017-12-12T06:24:04.934Z,87.89
2017-12-12T06:25:07.801Z,88.18
2017-12-12T06:26:10.274Z,88.33
2017-12-12T06:27:12.772Z,88.17
2017-12-12T06:28:15.261Z,88.03
2017-12-12T06:29:17.736Z,87.84
2017-12-12T06:30:20.191Z,87.92
2017-12-12T06:31:22.651Z,87.99
2017-12-12T06:32:25.129Z,87.72
2017-12-12T06:33:27.582Z,88.00
2017-12-12T06:34:30.058Z,87.96
2017-12-12T06:35:32.558Z,87.85
2017-12-12T06:36:35.017Z,87.80
2017-12-12T06:37:37.508Z,88.01
2017-12-12T06:38:39.978Z,88.15
2017-12-12T06:39:42.731Z,87.94
2017-12-12T06:40:45.214Z,87.99
2017-12-12T06:41:47.878Z,87.93
2017-12-12T06:42:50.354Z,87.92
2017-12-12T06:43:53.048Z,87.59
2017-12-12T06:44:55.572Z,87.58
2017-12-12T06:45:58.044Z,87.76
2017-12-12T06:47:00.541Z,87.61
2017-12-12T06:48:03.026Z,87.70
2017-12-12T06:49:05.501Z,87.68
2017-12-12T06:50:08.005Z,87.53
2017-12-12T06:51:10.462Z,87.31
2017-12-12T06:52:13.016Z,87.43
2017-12-12T06:53:15.482Z,87.34
2017-12-12T06:54:17.956Z,87.30
2017-12-12T06:55:20.431Z,87.50
2017-12-12T06:56:22.894Z,87.57
2017-12-12T06:57:25.365Z,87.32
2017-12-12T06:58:27.840Z,87.38
2017-12-12T06:59:30.297Z,87.45
2017-12-12T07:00:32.774Z,87.11
2017-12-12T07:01:35.262Z,87.11
2017-12-12T07:02:37.725Z,87.09
2017-12-12T07:03:40.196Z,87.54
2017-12-12T07:04:42.671Z,87.55
2017-12-12T07:05:45.162Z,87.62
2017-12-12T07:06:47.637Z,87.19
2017-12-12T07:07:50.111Z,86.97
2017-12-12T07:08:52.571Z,86.92
2017-12-12T07:09:55.044Z,87.02
2017-12-12T07:10:57.568Z,86.99
2017-12-12T07:12:00.027Z,87.11
2017-12-12T07:13:02.483Z,87.22
2017-12-12T07:14:04.952Z,87.08
2017-12-12T07:15:07.404Z,87.12
2017-12-12T07:16:09.887Z,87.29
2017-12-12T07:17:12.410Z,87.86
2017-12-12T07:18:14.867Z,87.93
2017-12-12T07:19:17.336Z,87.31
2017-12-12T07:20:19.794Z,87.22
2017-12-12T07:21:22.271Z,87.23
2017-12-12T07:22:24.740Z,87.42
2017-12-12T07:23:27.199Z,87.42
2017-12-12T07:24:29.658Z,87.24
2017-12-12T07:25:32.122Z,87.32
2017-12-12T07:26:34.600Z,87.33
2017-12-12T07:27:37.088Z,87.46
2017-12-12T07:28:39.563Z,87.60
2017-12-12T07:29:42.019Z,87.17
2017-12-12T07:30:44.475Z,87.33
2017-12-12T07:31:46.950Z,87.38
2017-12-12T07:32:49.416Z,87.58
2017-12-12T07:33:51.885Z,87.43
2017-12-12T07:34:54.347Z,87.47
2017-12-12T07:35:56.821Z,87.35
2017-12-12T07:36:59.319Z,87.06
2017-12-12T07:38:01.778Z,87.16
2017-12-12T07:39:04.256Z,87.29
2017-12-12T07:40:06.723Z,87.30
2017-12-12T07:41:09.175Z,87.30
2017-12-12T07:42:11.653Z,86.93
2017-12-12T07:43:14.139Z,86.87
2017-12-12T07:44:16.627Z,86.81
2017-12-12T07:45:19.092Z,86.84
2017-12-12T07:46:21.565Z,86.91
2017-12-12T07:47:24.030Z,86.84
2017-12-12T07:48:26.486Z,87.01
2017-12-12T07:49:28.965Z,87.22
2017-12-12T07:50:31.444Z,87.10
2017-12-12T07:51:33.917Z,87.13
2017-12-12T07:52:36.416Z,86.65
2017-12-12T07:53:38.882Z,86.65
2017-12-12T07:54:41.356Z,86.49
2017-12-12T07:55:43.856Z,86.75
2017-12-12T07:56:46.357Z,87.32
2017-12-12T07:57:48.847Z,86.96
2017-12-12T07:58:51.298Z,86.82
2017-12-12T07:59:53.796Z,86.99
2017-12-12T08:00:56.257Z,86.79
2017-12-12T08:01:58.740Z,86.81
2017-12-12T08:03:01.229Z,86.50
2017-12-12T08:04:03.729Z,86.50
2017-12-12T08:05:06.202Z,86.46
2017-12-12T08:06:08.682Z,86.35
2017-12-12T08:07:11.131Z,86.51
2017-12-12T08:08:13.628Z,86.36
2017-12-12T08:09:16.114Z,86.23
2017-12-12T08:10:18.583Z,86.10
2017-12-12T08:11:22.482Z,86.14
2017-12-12T08:12:25.258Z,86.21
2017-12-12T08:13:28.079Z,85.99
2017-12-12T08:14:30.545Z,86.15
2017-12-12T08:15:33.017Z,86.21
2017-12-12T08:16:35.867Z,86.54
2017-12-12T08:17:38.631Z,86.42
2017-12-12T08:18:41.425Z,86.04
2017-12-12T08:19:44.019Z,86.01
2017-12-12T08:20:46.463Z,85.92
2017-12-12T08:21:48.953Z,85.89
2017-12-12T08:22:51.410Z,86.11
2017-12-12T08:23:53.894Z,86.07
2017-12-12T08:24:56.378Z,85.92
2017-12-12T08:25:58.838Z,85.74
2017-12-12T08:27:01.360Z,85.69
2017-12-12T08:28:03.778Z,85.44
2017-12-12T08:29:06.261Z,85.55
2017-12-12T08:30:08.745Z,85.76
2017-12-12T08:31:11.229Z,86.09
2017-12-12T08:32:13.769Z,85.75
2017-12-12T08:33:16.245Z,85.57
2017-12-12T08:34:18.727Z,85.80
2017-12-12T08:35:21.201Z,85.39
2017-12-12T08:36:23.700Z,85.62
2017-12-12T08:37:26.170Z,85.56
2017-12-12T08:38:28.640Z,85.20
2017-12-12T08:39:31.134Z,85.29
2017-12-12T08:40:33.602Z,85.43
2017-12-12T08:41:36.072Z,85.81
2017-12-12T08:42:38.549Z,85.84
2017-12-12T08:43:41.003Z,86.18
2017-12-12T08:44:43.505Z,86.11
2017-12-12T08:45:45.999Z,86.34
2017-12-12T08:46:48.480Z,86.26
2017-12-12T08:47:51.682Z,85.90
2017-12-12T08:48:54.162Z,86.07
2017-12-12T08:49:56.629Z,86.13
2017-12-12T08:50:59.094Z,86.07
2017-12-12T08:52:01.590Z,85.94
2017-12-12T08:53:06.775Z,86.26
2017-12-12T08:54:09.514Z,85.97
2017-12-12T08:55:11.984Z,86.34
2017-12-12T08:56:14.441Z,86.23
2017-12-12T08:57:16.923Z,86.06
2017-12-12T08:58:19.393Z,86.08
2017-12-12T08:59:21.868Z,85.87
2017-12-12T09:00:24.321Z,86.07
2017-12-12T09:01:26.792Z,85.62
2017-12-12T09:02:29.246Z,85.99
2017-12-12T09:03:31.722Z,86.10
2017-12-12T09:04:34.192Z,86.16
2017-12-12T09:05:36.646Z,85.92
2017-12-12T09:06:39.121Z,86.19
2017-12-12T09:07:41.571Z,85.94
2017-12-12T09:08:44.044Z,86.07
2017-12-12T09:09:46.546Z,85.75
2017-12-12T09:10:49.041Z,85.76
2017-12-12T09:11:51.498Z,85.65
2017-12-12T09:12:53.978Z,85.34
2017-12-12T09:13:56.434Z,85.36
2017-12-12T09:14:58.906Z,85.49
2017-12-12T09:16:01.377Z,85.34
2017-12-12T09:17:03.955Z,84.91
2017-12-12T09:18:06.420Z,85.04
2017-12-12T09:19:08.896Z,84.98
2017-12-12T09:20:11.365Z,84.77
2017-12-12T09:21:13.835Z,83.76
2017-12-12T09:22:16.295Z,83.58
2017-12-12T09:23:18.767Z,83.65
2017-12-12T09:24:21.232Z,83.90
2017-12-12T09:25:23.683Z,83.84
2017-12-12T09:26:26.172Z,84.12
2017-12-12T09:27:28.630Z,84.31
2017-12-12T09:28:31.090Z,84.76
2017-12-12T09:29:33.564Z,84.47
2017-12-12T09:30:36.018Z,84.17
2017-12-12T09:31:38.475Z,84.12
2017-12-12T09:32:40.927Z,84.22
2017-12-12T09:33:43.378Z,84.42
2017-12-12T09:34:45.826Z,84.15
2017-12-12T09:35:48.278Z,84.36
2017-12-12T09:36:50.816Z,84.38
2017-12-12T09:37:53.313Z,84.45
2017-12-12T09:38:55.779Z,84.42
2017-12-12T09:39:58.238Z,84.73
2017-12-12T09:41:00.704Z,84.60
2017-12-12T09:42:03.189Z,84.78
2017-12-12T09:43:05.701Z,84.83
2017-12-12T09:44:08.174Z,84.50
2017-12-12T09:45:10.648Z,84.60
2017-12-12T09:46:13.124Z,84.55
2017-12-12T09:47:15.574Z,84.38
2017-12-12T09:48:18.187Z,84.58
2017-12-12T09:49:20.634Z,84.17
2017-12-12T09:50:23.099Z,84.62
2017-12-12T09:51:25.565Z,84.42
2017-12-12T09:52:28.020Z,84.52
2017-12-12T09:53:30.491Z,84.46
2017-12-12T09:54:32.947Z,84.10
2017-12-12T09:55:35.403Z,84.16
2017-12-12T09:56:37.868Z,84.31
2017-12-12T09:57:40.322Z,84.34
2017-12-12T09:58:42.784Z,84.22
2017-12-12T09:59:45.235Z,84.56
2017-12-12T10:00:47.710Z,84.50
2017-12-12T10:01:50.167Z,84.42
2017-12-12T10:02:52.818Z,84.35
2017-12-12T10:03:55.270Z,83.95
2017-12-12T10:04:57.714Z,83.87
2017-12-12T10:06:00.183Z,83.92
2017-12-12T10:07:02.639Z,84.07
2017-12-12T10:08:05.104Z,83.97
2017-12-12T10:09:07.560Z,83.97
2017-12-12T10:10:10.028Z,83.95
2017-12-12T10:11:12.509Z,84.08
2017-12-12T10:12:14.978Z,83.92
2017-12-12T10:13:17.427Z,83.74
2017-12-12T10:14:19.892Z,83.61
2017-12-12T10:15:22.381Z,83.56
2017-12-12T10:16:24.858Z,83.38
2017-12-12T10:17:27.345Z,83.43
2017-12-12T10:18:29.962Z,84.02
2017-12-12T10:19:32.451Z,83.44
2017-12-12T10:20:34.932Z,83.19
2017-12-12T10:21:37.412Z,83.82
2017-12-12T10:22:39.880Z,83.63
2017-12-12T10:23:42.367Z,83.46
2017-12-12T10:24:44.872Z,83.49
2017-12-12T10:25:47.343Z,83.71
2017-12-12T10:26:49.794Z,83.41
2017-12-12T10:27:52.242Z,83.58
2017-12-12T10:28:54.695Z,83.83
2017-12-12T10:29:57.142Z,83.76
2017-12-12T10:30:59.609Z,83.98
2017-12-12T10:32:02.073Z,83.98
2017-12-12T10:33:04.553Z,84.23
2017-12-12T10:34:07.017Z,83.97
2017-12-12T10:35:09.467Z,83.90
2017-12-12T10:36:11.947Z,84.23
2017-12-12T10:37:14.426Z,84.23
2017-12-12T10:38:16.905Z,84.41
2017-12-12T10:39:19.359Z,84.68
2017-12-12T10:40:21.810Z,84.17
2017-12-12T10:41:24.301Z,83.77
2017-12-12T10:42:26.816Z,83.69
2017-12-12T10:43:29.290Z,83.79
2017-12-12T10:44:31.756Z,83.87
2017-12-12T10:45:34.253Z,83.87
2017-12-12T10:46:36.724Z,84.06
2017-12-12T10:47:39.281Z,83.89
2017-12-12T10:48:41.740Z,83.88
2017-12-12T10:49:44.195Z,83.67
2017-12-12T10:50:46.652Z,83.59
2017-12-12T10:51:49.110Z,83.86
2017-12-12T10:52:51.577Z,83.83
2017-12-12T10:53:54.044Z,83.91
2017-12-12T10:54:56.539Z,83.92
2017-12-12T10:55:59.006Z,83.87
2017-12-12T10:57:01.501Z,83.88
2017-12-12T10:58:03.963Z,83.99
2017-12-12T10:59:06.436Z,83.82
2017-12-12T11:00:08.929Z,84.17
2017-12-12T11:01:11.404Z,83.95
2017-12-12T11:02:13.924Z,84.01
2017-12-12T11:03:16.391Z,83.74
2017-12-12T11:04:18.846Z,83.25
2017-12-12T11:05:21.354Z,83.31
2017-12-12T11:06:23.835Z,83.20
2017-12-12T11:07:26.294Z,83.19
2017-12-12T11:08:28.785Z,83.55
2017-12-12T11:09:31.337Z,83.82
2017-12-12T11:10:33.816Z,83.89
2017-12-12T11:11:36.291Z,83.76
2017-12-12T11:12:38.808Z,83.98
2017-12-12T11:13:41.321Z,83.75
2017-12-12T11:14:43.875Z,84.05
2017-12-12T11:15:46.373Z,83.94
2017-12-12T11:16:48.833Z,83.97
2017-12-12T11:17:51.697Z,83.97
2017-12-12T11:18:54.174Z,84.28
2017-12-12T11:19:56.649Z,84.09
2017-12-12T11:20:59.110Z,84.04
2017-12-12T11:22:01.575Z,83.89
2017-12-12T11:23:04.032Z,83.55
2017-12-12T11:24:06.517Z,83.61
2017-12-12T11:25:09.001Z,83.59
2017-12-12T11:26:11.483Z,83.34
2017-12-12T11:27:13.945Z,83.51
2017-12-12T11:28:16.395Z,83.25
2017-12-12T11:29:18.861Z,83.54
2017-12-12T11:30:21.335Z,83.61
2017-12-12T11:31:23.812Z,83.34
2017-12-12T11:32:26.262Z,83.37
2017-12-12T11:33:28.718Z,82.75
2017-12-12T11:34:31.194Z,82.48
2017-12-12T11:35:33.661Z,82.22
2017-12-12T11:36:36.254Z,81.63
2017-12-12T11:37:38.759Z,81.02
2017-12-12T11:38:41.178Z,79.96
2017-12-12T11:39:43.661Z,79.41
2017-12-12T11:40:46.124Z,78.59
2017-12-12T11:41:48.616Z,79.21
2017-12-12T11:42:51.089Z,78.83
2017-12-12T11:43:53.547Z,79.12
2017-12-12T11:44:56.016Z,79.23
2017-12-12T11:45:58.493Z,80.10
2017-12-12T11:47:00.971Z,80.19
2017-12-12T11:48:03.415Z,80.70
2017-12-12T11:49:05.935Z,80.72
2017-12-12T11:50:08.354Z,80.35
2017-12-12T11:51:10.868Z,80.68
2017-12-12T11:52:13.362Z,80.13
2017-12-12T11:53:15.826Z,80.07
2017-12-12T11:54:18.293Z,80.12
2017-12-12T11:55:20.757Z,80.38
2017-12-12T11:56:23.203Z,80.15
2017-12-12T11:57:25.694Z,80.59
2017-12-12T11:58:28.165Z,81.06
2017-12-12T11:59:30.634Z,81.17
2017-12-12T12:00:33.093Z,81.10
2017-12-12T12:01:35.546Z,81.62
2017-12-12T12:02:38.033Z,81.69
2017-12-12T12:03:40.501Z,81.63
2017-12-12T12:04:42.957Z,81.70
2017-12-12T12:05:45.411Z,81.60
2017-12-12T12:06:47.859Z,81.76
2017-12-12T12:07:50.324Z,81.87
2017-12-12T12:08:52.803Z,81.79
2017-12-12T12:09:55.264Z,82.00
2017-12-12T12:10:57.719Z,81.39
2017-12-12T12:12:00.173Z,81.05
2017-12-12T12:13:02.642Z,80.93
2017-12-12T12:14:05.161Z,81.23
2017-12-12T12:15:07.658Z,81.06
2017-12-12T12:16:10.126Z,80.85
2017-12-12T12:17:12.617Z,80.25
2017-12-12T12:18:15.112Z,78.87
2017-12-12T12:19:17.562Z,75.07
2017-12-12T12:20:20.041Z,72.12
2017-12-12T12:21:22.504Z,73.81
2017-12-12T12:22:24.973Z,74.16
2017-12-12T12:23:27.469Z,74.08
2017-12-12T12:24:29.941Z,73.97
2017-12-12T12:25:32.399Z,73.69
2017-12-12T12:26:34.861Z,72.30
2017-12-12T12:27:37.310Z,73.77
2017-12-12T12:28:39.792Z,74.46
2017-12-12T12:29:42.255Z,75.26
2017-12-12T12:30:44.714Z,76.25
2017-12-12T12:31:47.203Z,76.62
2017-12-12T12:32:49.665Z,77.31
2017-12-12T12:33:52.274Z,77.31
2017-12-12T12:34:54.735Z,76.82
2017-12-12T12:35:57.190Z,77.40
2017-12-12T12:36:59.648Z,77.92
2017-12-12T12:38:02.098Z,78.49
2017-12-12T12:39:04.569Z,78.99
2017-12-12T12:40:07.016Z,79.19
2017-12-12T12:41:09.470Z,79.49
2017-12-12T12:42:11.937Z,79.29
2017-12-12T12:43:14.391Z,79.65
2017-12-12T12:44:16.863Z,80.33
2017-12-12T12:45:19.319Z,80.52
2017-12-12T12:46:21.789Z,80.39
2017-12-12T12:47:24.261Z,80.20
2017-12-12T12:48:26.719Z,80.12
2017-12-12T12:49:29.298Z,79.95
2017-12-12T12:50:31.775Z,80.46
2017-12-12T12:51:34.238Z,80.41
2017-12-12T12:52:36.688Z,80.11
2017-12-12T12:53:39.149Z,79.92
2017-12-12T12:54:41.669Z,79.47
2017-12-12T12:55:44.131Z,79.06
2017-12-12T12:56:46.593Z,79.40
2017-12-12T12:57:49.870Z,79.51
2017-12-12T12:58:52.318Z,78.81
2017-12-12T12:59:54.791Z,78.17
2017-12-12T13:00:57.238Z,77.81
2017-12-12T13:01:59.700Z,78.15
2017-12-12T13:03:02.146Z,78.18
2017-12-12T13:04:04.603Z,78.43
2017-12-12T13:05:07.071Z,78.67
2017-12-12T13:06:09.532Z,78.79
2017-12-12T13:07:11.992Z,79.12
2017-12-12T13:08:14.453Z,78.98
2017-12-12T13:09:16.900Z,79.28
2017-12-12T13:10:19.382Z,79.32
2017-12-12T13:11:21.844Z,79.42
2017-12-12T13:12:24.292Z,79.32
2017-12-12T13:13:26.755Z,79.50
2017-12-12T13:14:29.216Z,79.58
2017-12-12T13:15:31.701Z,79.37
2017-12-12T13:16:34.306Z,79.30
2017-12-12T13:17:37.211Z,78.94
2017-12-12T13:18:39.692Z,79.01
2017-12-12T13:19:42.188Z,79.16
2017-12-12T13:20:44.674Z,79.27
2017-12-12T13:21:47.126Z,79.68
2017-12-12T13:22:49.589Z,79.32
2017-12-12T13:23:52.053Z,79.54
2017-12-12T13:24:54.502Z,79.43